KECS/ECS METAR and TAF weather

Enter ICAO airport designator
Station Type Date Time Source
KECS METAR 2021/03/03 02:35 UTC NOAA

KECS 030235Z AUTO 00000KT 10SM CLR 02/M06 A2991 RMK AO2


Station Type Date Time Source
KECS Decoded METAR 2021/03/03 02:35 UTC NOAA

Station name not available
Mar 02, 2021 - 09:35 PM EST / 2021.03.03 0235 UTC
Wind: Calm:0
Visibility: 10 mile(s):0
Sky conditions: clear
Temperature: 35 F (2 C)
Dew Point: 21 F (-6 C)
Relative Humidity: 55%
Pressure (altimeter): 29.91 in. Hg (1012 hPa)
ob: KECS 030235Z AUTO 00000KT 10SM CLR 02/M06 A2991 RMK AO2
cycle: 2

Station Type Date Time Source
KECS TAF UTC NOAA

Error!

Example: see airport list